Terminal Aerodrome Forecast
Issued by NWS Rapid City, SD

Home | Current Version | Previous Version | Text Only | Print | Product List | Glossary Off
Versions: 1 2 3 4 5 6 7 8 9 10 11 12 13 14 15 16 17 18

000
FTUS43 KUNR 240800 AAA
TAFRAP
TAF AMD
KRAP 240840Z 2409/2506 33015KT P6SM SCT100
     FM241500 33024G34KT P6SM BKN025=

USA.gov is the U.S. government's official web portal to all federal, state and local government web resources and services.